createdAt,value
2019-04-05T00:00:03.489Z,97347.92
2019-04-05T00:02:35.339Z,97347.38
2019-04-05T00:05:06.134Z,97355.11
2019-04-05T00:07:36.379Z,97352.86
2019-04-05T00:10:08.023Z,97361.63
2019-04-05T00:12:38.367Z,97363.06
2019-04-05T00:15:15.589Z,97364.95
2019-04-05T00:17:40.829Z,97360.44
2019-04-05T00:20:11.573Z,97370.20
2019-04-05T00:22:42.106Z,97371.05
2019-04-05T00:25:12.519Z,97377.70
2019-04-05T00:27:42.850Z,97382.78
2019-04-05T00:30:13.275Z,97390.17
2019-04-05T00:32:43.683Z,97394.63
2019-04-05T00:35:13.936Z,97393.53
2019-04-05T00:37:44.221Z,97390.39
2019-04-05T00:40:14.789Z,97385.24
2019-04-05T00:42:45.225Z,97389.75
2019-04-05T00:45:27.507Z,97388.77
2019-04-05T00:47:47.496Z,97399.55
2019-04-05T00:50:17.849Z,97409.21
2019-04-05T00:52:48.203Z,97412.66
2019-04-05T00:55:18.460Z,97417.83
2019-04-05T00:57:49.550Z,97425.80
2019-04-05T01:00:20.338Z,97427.13
2019-04-05T01:02:50.662Z,97430.91
2019-04-05T01:05:20.988Z,97438.78
2019-04-05T01:07:51.389Z,97442.45
2019-04-05T01:10:22.569Z,97445.30
2019-04-05T01:12:52.932Z,97452.39
2019-04-05T01:15:23.210Z,97455.70
2019-04-05T01:17:53.700Z,97467.38
2019-04-05T01:20:25.398Z,97465.17
2019-04-05T01:22:55.754Z,97476.72
2019-04-05T01:25:27.904Z,97479.67
2019-04-05T01:27:58.111Z,97486.17
2019-04-05T01:30:28.938Z,97484.88
2019-04-05T01:32:59.211Z,97490.75
2019-04-05T01:35:29.433Z,97495.11
2019-04-05T01:38:00.039Z,97491.36
2019-04-05T01:40:32.708Z,97489.78
2019-04-05T01:43:03.068Z,97492.15
2019-04-05T01:45:33.588Z,97503.56
2019-04-05T01:48:03.847Z,97503.88
2019-04-05T01:50:34.086Z,97503.22
2019-04-05T01:53:04.634Z,97512.72
2019-04-05T01:55:34.967Z,97513.55
2019-04-05T01:58:05.343Z,97516.23
2019-04-05T02:00:35.609Z,97514.47
2019-04-05T02:03:05.962Z,97512.12
2019-04-05T02:05:36.316Z,97516.11
2019-04-05T02:08:06.624Z,97513.88
2019-04-05T02:10:37.022Z,97514.81
2019-04-05T02:13:07.327Z,97520.23
2019-04-05T02:15:38.053Z,97521.33
2019-04-05T02:18:08.315Z,97519.50
2019-04-05T02:20:38.509Z,97514.36
2019-04-05T02:23:08.760Z,97518.45
2019-04-05T02:25:39.032Z,97520.84
2019-04-05T02:28:09.349Z,97525.52
2019-04-05T02:30:40.256Z,97533.72
2019-04-05T02:33:10.522Z,97533.52
2019-04-05T02:35:40.952Z,97532.55
2019-04-05T02:38:11.191Z,97535.30
2019-04-05T02:40:42.704Z,97532.34
2019-04-05T02:43:15.734Z,97534.09
2019-04-05T02:45:47.675Z,97537.41
2019-04-05T02:48:20.627Z,97536.34
2019-04-05T02:50:54.902Z,97541.09
2019-04-05T02:53:25.638Z,97545.08
2019-04-05T02:55:56.771Z,97554.50
2019-04-05T02:58:28.291Z,97548.94
2019-04-05T03:00:58.826Z,97549.53
2019-04-05T03:03:29.441Z,97545.64
2019-04-05T03:05:59.734Z,97556.30
2019-04-05T03:08:29.966Z,97546.25
2019-04-05T03:11:08.876Z,97547.33
2019-04-05T03:13:45.687Z,97560.70
2019-04-05T03:16:21.039Z,97555.42
2019-04-05T03:18:55.454Z,97564.45
2019-04-05T03:21:28.584Z,97569.73
2019-04-05T03:24:01.496Z,97568.70
2019-04-05T03:26:35.153Z,97571.53
2019-04-05T03:29:08.831Z,97578.81
2019-04-05T03:31:39.952Z,97568.98
2019-04-05T03:34:10.293Z,97575.21
2019-04-05T03:36:40.864Z,97573.19
2019-04-05T03:39:11.519Z,97576.98
2019-04-05T03:41:41.953Z,97585.91
2019-04-05T03:44:12.231Z,97583.70
2019-04-05T03:46:56.605Z,97583.20
2019-04-05T03:49:16.111Z,97582.12
2019-04-05T03:51:46.451Z,97583.22
2019-04-05T03:54:16.750Z,97578.17
2019-04-05T03:56:47.234Z,97582.16
2019-04-05T03:59:17.804Z,97584.85
2019-04-05T04:01:48.143Z,97587.97
2019-04-05T04:04:18.705Z,97586.14
2019-04-05T04:06:49.164Z,97589.42
2019-04-05T04:09:19.880Z,97594.56
2019-04-05T04:11:50.229Z,97598.20
2019-04-05T04:14:20.891Z,97603.22
2019-04-05T04:16:51.246Z,97610.14
2019-04-05T04:19:21.791Z,97618.88
2019-04-05T04:22:28.337Z,97621.23
2019-04-05T04:24:59.656Z,97622.64
2019-04-05T04:27:30.552Z,97628.11
2019-04-05T04:30:01.583Z,97630.09
2019-04-05T04:32:34.401Z,97639.05
2019-04-05T04:35:05.458Z,97640.14
2019-04-05T04:37:36.230Z,97648.52
2019-04-05T04:40:07.359Z,97651.50
2019-04-05T04:42:38.171Z,97659.59
2019-04-05T04:45:12.412Z,97654.53
2019-04-05T04:47:40.738Z,97657.06
2019-04-05T04:50:11.653Z,97654.91
2019-04-05T04:52:42.567Z,97659.45
2019-04-05T04:55:13.212Z,97659.90
2019-04-05T04:57:43.897Z,97659.32
2019-04-05T05:00:22.556Z,97665.69
2019-04-05T05:02:54.469Z,97669.38
2019-04-05T05:05:28.168Z,97675.56
2019-04-05T05:07:58.968Z,97678.47
2019-04-05T05:10:29.788Z,97676.26
2019-04-05T05:13:00.158Z,97677.91
2019-04-05T05:15:31.839Z,97680.41
2019-04-05T05:18:02.095Z,97680.28
2019-04-05T05:20:33.221Z,97679.05
2019-04-05T05:23:03.622Z,97683.20
2019-04-05T05:25:34.577Z,97684.86
2019-04-05T05:28:05.231Z,97691.32
2019-04-05T05:30:35.967Z,97692.06
2019-04-05T05:33:08.800Z,97688.75
2019-04-05T05:35:39.393Z,97705.27
2019-04-05T05:38:11.751Z,97707.77
2019-04-05T05:40:48.175Z,97710.86
2019-04-05T05:43:18.481Z,97714.81
2019-04-05T05:45:49.838Z,97720.70
2019-04-05T05:48:22.022Z,97719.23
2019-04-05T05:50:53.060Z,97722.79
2019-04-05T05:53:23.542Z,97725.94
2019-04-05T05:55:53.966Z,97727.73
2019-04-05T05:59:21.743Z,97730.88
2019-04-05T06:01:55.642Z,97727.97
2019-04-05T06:04:26.090Z,97723.88
2019-04-05T06:06:57.511Z,97715.66
2019-04-05T06:09:27.958Z,97716.33
2019-04-05T06:11:58.277Z,97706.85
2019-04-05T06:14:28.675Z,97712.08
2019-04-05T06:16:58.948Z,97710.07
2019-04-05T06:19:30.935Z,97712.73
2019-04-05T06:22:01.534Z,97716.12
2019-04-05T06:24:34.100Z,97711.64
2019-04-05T06:27:05.061Z,97721.16
2019-04-05T06:29:35.926Z,97720.12
2019-04-05T06:32:06.194Z,97726.12
2019-04-05T06:34:38.684Z,97732.11
2019-04-05T06:37:19.189Z,97718.79
2019-04-05T06:39:49.968Z,97727.10
2019-04-05T06:42:20.189Z,97736.11
2019-04-05T06:44:50.511Z,97740.70
2019-04-05T06:47:20.925Z,97744.63
2019-04-05T06:49:51.375Z,97745.78
2019-04-05T06:52:21.658Z,97746.06
2019-04-05T06:54:52.133Z,97747.52
2019-04-05T06:57:23.477Z,97748.41
2019-04-05T06:59:53.896Z,97758.08
2019-04-05T07:02:26.596Z,97751.31
2019-04-05T07:04:57.091Z,97770.95
2019-04-05T07:07:33.940Z,97772.03
2019-04-05T07:10:13.040Z,97775.75
2019-04-05T07:12:46.733Z,97778.06
2019-04-05T07:15:17.389Z,97773.17
2019-04-05T07:17:47.979Z,97777.93
2019-04-05T07:20:18.288Z,97777.50
2019-04-05T07:22:48.652Z,97780.44
2019-04-05T07:25:18.996Z,97784.93
2019-04-05T07:27:50.838Z,97777.89
2019-04-05T07:30:21.309Z,97775.67
2019-04-05T07:32:51.604Z,97761.30
2019-04-05T07:35:32.677Z,97770.84
2019-04-05T07:37:54.171Z,97774.09
2019-04-05T07:40:25.947Z,97774.13
2019-04-05T07:42:56.373Z,97786.77
2019-04-05T07:45:26.663Z,97778.91
2019-04-05T07:47:57.832Z,97780.72
2019-04-05T07:50:28.094Z,97780.39
2019-04-05T07:52:58.380Z,97782.52
2019-04-05T07:55:28.700Z,97773.32
2019-04-05T07:57:59.793Z,97770.96
2019-04-05T08:00:51.150Z,97773.41
2019-04-05T08:03:22.813Z,97762.13
2019-04-05T08:05:53.679Z,97768.15
2019-04-05T08:08:45.723Z,97779.05
2019-04-05T08:11:18.059Z,97780.96
2019-04-05T08:14:03.411Z,97777.70
2019-04-05T08:16:44.691Z,97771.86
2019-04-05T08:19:24.805Z,97775.47
2019-04-05T08:21:59.333Z,97778.03
2019-04-05T08:24:29.626Z,97778.78
2019-04-05T08:26:59.849Z,97771.66
2019-04-05T08:29:30.242Z,97785.30
2019-04-05T08:32:13.620Z,97777.85
2019-04-05T08:34:33.510Z,97769.13
2019-04-05T08:37:03.836Z,97762.88
2019-04-05T08:39:34.222Z,97769.63
2019-04-05T08:42:04.844Z,97769.41
2019-04-05T08:44:35.204Z,97769.90
2019-04-05T08:47:06.046Z,97760.22
2019-04-05T08:49:36.825Z,97772.39
2019-04-05T08:52:07.352Z,97763.04
2019-04-05T08:54:38.952Z,97755.78
2019-04-05T08:57:09.388Z,97752.48
2019-04-05T08:59:40.360Z,97753.04
2019-04-05T09:02:10.837Z,97751.16
2019-04-05T09:04:41.435Z,97756.56
2019-04-05T09:07:13.160Z,97753.53
2019-04-05T09:09:43.733Z,97751.93
2019-04-05T09:12:15.032Z,97753.25
2019-04-05T09:14:45.417Z,97757.17
2019-04-05T09:17:16.096Z,97744.69
2019-04-05T09:19:47.199Z,97749.16
2019-04-05T09:22:17.735Z,97731.80
2019-04-05T09:24:48.059Z,97737.97
2019-04-05T09:27:18.446Z,97744.58
2019-04-05T09:29:49.218Z,97738.04
2019-04-05T09:32:19.528Z,97743.27
2019-04-05T09:34:49.751Z,97742.94
2019-04-05T09:37:20.802Z,97739.72
2019-04-05T09:39:51.060Z,97734.34
2019-04-05T09:42:21.335Z,97733.20
2019-04-05T09:44:51.636Z,97738.75
2019-04-05T09:47:22.006Z,97738.44
2019-04-05T09:49:52.429Z,97735.82
2019-04-05T09:52:22.675Z,97727.81
2019-04-05T09:54:52.989Z,97734.16
2019-04-05T09:57:23.196Z,97742.41
2019-04-05T09:59:54.010Z,97727.39
2019-04-05T10:02:24.285Z,97725.39
2019-04-05T10:04:55.190Z,97724.41
2019-04-05T10:07:25.851Z,97731.75
2019-04-05T10:09:56.159Z,97722.03
2019-04-05T10:12:26.912Z,97723.36
2019-04-05T10:14:57.575Z,97729.55
2019-04-05T10:17:28.273Z,97724.52
2019-04-05T10:19:58.979Z,97722.09
2019-04-05T10:22:30.325Z,97727.19
2019-04-05T10:25:00.811Z,97720.29
2019-04-05T10:27:31.269Z,97719.70
2019-04-05T10:30:01.600Z,97718.92
2019-04-05T10:32:32.065Z,97716.79
2019-04-05T10:35:02.976Z,97726.68
2019-04-05T10:37:33.890Z,97727.35
2019-04-05T10:40:07.564Z,97721.09
2019-04-05T10:42:38.774Z,97721.28
2019-04-05T10:45:10.857Z,97726.67
2019-04-05T10:47:41.514Z,97723.70
2019-04-05T10:50:15.340Z,97726.47
2019-04-05T10:52:45.824Z,97714.63
2019-04-05T10:55:16.377Z,97721.67
2019-04-05T10:57:46.759Z,97720.52
2019-04-05T11:00:19.334Z,97724.58
2019-04-05T11:02:49.803Z,97721.66
2019-04-05T11:05:20.104Z,97728.83
2019-04-05T11:07:50.809Z,97735.13
2019-04-05T11:10:21.638Z,97726.09
2019-04-05T11:12:52.307Z,97730.55
2019-04-05T11:15:22.736Z,97726.70
2019-04-05T11:17:53.308Z,97732.18
2019-04-05T11:20:23.799Z,97726.58
2019-04-05T11:22:54.294Z,97731.09
2019-04-05T11:25:26.903Z,97722.39
2019-04-05T11:27:59.131Z,97726.44
2019-04-05T11:30:51.977Z,97722.73
2019-04-05T11:33:23.267Z,97725.29
2019-04-05T11:35:57.898Z,97717.96
2019-04-05T11:38:29.514Z,97718.77
2019-04-05T11:41:01.380Z,97722.05
2019-04-05T11:43:35.313Z,97724.19
2019-04-05T11:46:08.898Z,97715.52
2019-04-05T11:48:41.357Z,97716.45
2019-04-05T11:51:12.174Z,97711.82
2019-04-05T11:53:42.781Z,97716.94
2019-04-05T11:56:14.818Z,97721.44
2019-04-05T11:58:48.771Z,97730.97
2019-04-05T12:01:30.669Z,97725.80
2019-04-05T12:04:00.881Z,97722.88
2019-04-05T12:06:35.136Z,97720.41
2019-04-05T12:09:08.967Z,97714.12
2019-04-05T12:11:39.730Z,97713.28
2019-04-05T12:14:10.104Z,97711.44
2019-04-05T12:16:40.890Z,97707.97
2019-04-05T12:19:11.280Z,97717.34
2019-04-05T12:21:41.551Z,97710.94
2019-04-05T12:24:11.910Z,97710.58
2019-04-05T12:26:42.778Z,97712.68
2019-04-05T12:29:13.687Z,97712.89
2019-04-05T12:31:44.012Z,97716.41
2019-04-05T12:34:14.761Z,97710.95
2019-04-05T12:36:46.153Z,97707.25
2019-04-05T12:39:17.777Z,97704.45
2019-04-05T12:41:48.792Z,97705.41
2019-04-05T12:44:19.213Z,97705.02
2019-04-05T12:46:49.524Z,97705.41
2019-04-05T12:49:19.837Z,97700.67
2019-04-05T12:51:50.851Z,97696.22
2019-04-05T12:54:23.665Z,97690.20
2019-04-05T12:56:58.124Z,97694.60
2019-04-05T12:59:28.902Z,97692.05
2019-04-05T13:01:59.859Z,97688.49
2019-04-05T13:04:30.268Z,97688.52
2019-04-05T13:07:01.210Z,97695.57
2019-04-05T13:09:31.553Z,97686.00
2019-04-05T13:12:01.925Z,97689.09
2019-04-05T13:14:32.421Z,97697.71
2019-04-05T13:17:03.175Z,97688.89
2019-04-05T13:19:33.363Z,97690.41
2019-04-05T13:22:03.871Z,97687.75
2019-04-05T13:24:34.513Z,97677.98
2019-04-05T13:27:04.856Z,97669.50
2019-04-05T13:29:35.510Z,97677.70
2019-04-05T13:32:05.983Z,97679.70
2019-04-05T13:34:36.368Z,97677.13
2019-04-05T13:37:19.314Z,97680.73
2019-04-05T13:39:39.170Z,97667.73
2019-04-05T13:42:10.456Z,97676.50
2019-04-05T13:44:40.831Z,97673.69
2019-04-05T13:47:11.073Z,97665.76
2019-04-05T13:49:41.586Z,97665.75
2019-04-05T13:52:12.781Z,97676.52
2019-04-05T13:54:43.236Z,97670.94
2019-04-05T13:57:15.736Z,97668.27
2019-04-05T13:59:46.904Z,97668.27
2019-04-05T14:02:20.718Z,97668.06
2019-04-05T14:04:49.321Z,97659.25
2019-04-05T14:07:21.588Z,97670.61
2019-04-05T14:09:53.587Z,97670.28
2019-04-05T14:12:31.172Z,97670.52
2019-04-05T14:15:02.013Z,97671.27
2019-04-05T14:17:33.809Z,97673.47
2019-04-05T14:20:04.927Z,97671.47
2019-04-05T14:22:35.252Z,97667.30
2019-04-05T14:25:06.734Z,97666.88
2019-04-05T14:27:39.143Z,97668.27
2019-04-05T14:30:09.375Z,97667.29
2019-04-05T14:32:40.127Z,97663.24
2019-04-05T14:35:14.250Z,97671.92
2019-04-05T14:37:44.570Z,97670.76
2019-04-05T14:40:15.423Z,97668.59
2019-04-05T14:42:45.787Z,97667.86
2019-04-05T14:45:16.287Z,97657.30
2019-04-05T14:47:46.574Z,97659.23
2019-04-05T14:50:17.088Z,97657.36
2019-04-05T14:52:49.539Z,97655.97
2019-04-05T14:55:19.576Z,97653.05
2019-04-05T14:57:50.916Z,97661.81
2019-04-05T15:00:21.481Z,97657.34
2019-04-05T15:02:51.740Z,97650.19
2019-04-05T15:05:23.924Z,97649.77
2019-04-05T15:07:55.078Z,97650.41
2019-04-05T15:10:26.173Z,97660.54
2019-04-05T15:12:56.697Z,97650.12
2019-04-05T15:15:27.017Z,97654.56
2019-04-05T15:17:57.238Z,97658.03
2019-04-05T15:20:27.624Z,97652.06
2019-04-05T15:23:00.008Z,97651.11
2019-04-05T15:25:30.345Z,97648.60
2019-04-05T15:28:00.655Z,97646.67
2019-04-05T15:30:30.943Z,97649.17
2019-04-05T15:33:04.636Z,97654.75
2019-04-05T15:35:35.943Z,97654.97
2019-04-05T15:38:07.787Z,97655.55
2019-04-05T15:40:38.405Z,97653.23
2019-04-05T15:43:09.796Z,97652.45
2019-04-05T15:45:42.760Z,97656.12
2019-04-05T15:48:13.299Z,97654.37
2019-04-05T15:50:43.653Z,97657.23
2019-04-05T15:53:19.363Z,97652.04
2019-04-05T15:55:49.597Z,97661.42
2019-04-05T15:58:20.164Z,97665.27
2019-04-05T16:00:50.411Z,97667.39
2019-04-05T16:03:20.758Z,97663.34
2019-04-05T16:05:50.986Z,97661.02
2019-04-05T16:08:21.311Z,97672.01
2019-04-05T16:10:52.730Z,97669.23
2019-04-05T16:13:22.976Z,97672.56
2019-04-05T16:15:53.316Z,97674.52
2019-04-05T16:18:23.698Z,97673.52
2019-04-05T16:20:56.220Z,97679.13
2019-04-05T16:23:26.450Z,97679.13
2019-04-05T16:25:56.831Z,97684.32
2019-04-05T16:28:27.165Z,97680.02
2019-04-05T16:30:58.477Z,97680.38
2019-04-05T16:33:28.945Z,97681.87
2019-04-05T16:35:59.175Z,97675.02
2019-04-05T16:38:29.553Z,97680.66
2019-04-05T16:41:00.314Z,97681.72
2019-04-05T16:43:31.753Z,97689.05
2019-04-05T16:46:02.057Z,97693.82
2019-04-05T16:48:32.614Z,97693.00
2019-04-05T16:51:03.019Z,97696.00
2019-04-05T16:53:33.278Z,97696.43
2019-04-05T16:56:03.489Z,97702.11
2019-04-05T16:58:33.907Z,97694.61
2019-04-05T17:01:06.414Z,97702.50
2019-04-05T17:03:37.147Z,97702.47
2019-04-05T17:06:07.475Z,97701.86
2019-04-05T17:08:37.977Z,97699.22
2019-04-05T17:11:08.368Z,97703.43
2019-04-05T17:13:38.575Z,97699.87
2019-04-05T17:16:08.819Z,97699.47
2019-04-05T17:18:39.133Z,97701.16
2019-04-05T17:21:09.408Z,97693.16
2019-04-05T17:23:39.859Z,97702.27
2019-04-05T17:26:10.159Z,97702.48
2019-04-05T17:28:40.460Z,97706.52
2019-04-05T17:31:10.839Z,97707.02
2019-04-05T17:33:41.375Z,97706.90
2019-04-05T17:36:11.721Z,97710.75
2019-04-05T17:38:42.190Z,97710.19
2019-04-05T17:41:12.546Z,97710.81
2019-04-05T17:43:42.862Z,97712.66
2019-04-05T17:46:14.193Z,97713.77
2019-04-05T17:48:44.536Z,97718.46
2019-04-05T17:51:14.768Z,97716.02
2019-04-05T17:53:45.307Z,97723.60
2019-04-05T17:56:15.699Z,97727.64
2019-04-05T17:58:46.561Z,97721.89
2019-04-05T18:01:16.760Z,97727.64
2019-04-05T18:03:47.104Z,97733.55
2019-04-05T18:06:17.377Z,97734.12
2019-04-05T18:08:47.797Z,97744.19
2019-04-05T18:11:18.277Z,97748.72
2019-04-05T18:13:48.733Z,97744.09
2019-04-05T18:16:20.638Z,97742.75
2019-04-05T18:18:51.042Z,97745.63
2019-04-05T18:21:21.448Z,97746.19
2019-04-05T18:23:52.884Z,97749.40
2019-04-05T18:26:23.430Z,97754.86
2019-04-05T18:28:53.677Z,97750.84
2019-04-05T18:31:23.892Z,97756.67
2019-04-05T18:33:54.183Z,97754.45
2019-04-05T18:36:25.496Z,97764.49
2019-04-05T18:38:55.727Z,97761.14
2019-04-05T18:41:26.350Z,97760.25
2019-04-05T18:43:56.645Z,97754.81
2019-04-05T18:46:27.764Z,97765.48
2019-04-05T18:48:58.015Z,97760.30
2019-04-05T18:51:28.244Z,97770.66
2019-04-05T18:53:58.486Z,97767.34
2019-04-05T18:56:28.761Z,97765.66
2019-04-05T18:58:59.315Z,97773.39
2019-04-05T19:01:30.745Z,97769.64
2019-04-05T19:04:01.170Z,97774.19
2019-04-05T19:06:35.485Z,97768.60
2019-04-05T19:09:07.619Z,97775.58
2019-04-05T19:11:39.327Z,97770.23
2019-04-05T19:14:09.893Z,97775.73
2019-04-05T19:16:40.195Z,97779.56
2019-04-05T19:19:10.467Z,97784.37
2019-04-05T19:21:40.679Z,97785.98
2019-04-05T19:24:10.947Z,97784.17
2019-04-05T19:26:41.311Z,97785.38
2019-04-05T19:29:11.525Z,97782.66
2019-04-05T19:49:29.064Z,97793.14
2019-04-05T19:51:59.368Z,97792.94
2019-04-05T19:54:29.736Z,97788.66
2019-04-05T19:57:00.030Z,97798.22
2019-04-05T19:59:30.351Z,97790.25
2019-04-05T20:02:00.620Z,97791.95
2019-04-05T20:04:31.173Z,97791.65
2019-04-05T20:07:01.393Z,97797.25
2019-04-05T20:09:31.677Z,97801.62
2019-04-05T20:12:01.997Z,97799.73
2019-04-05T20:14:32.281Z,97811.98
2019-04-05T20:17:02.670Z,97803.81
2019-04-05T20:19:33.216Z,97808.13
2019-04-05T20:22:04.526Z,97810.06
2019-04-05T20:24:34.794Z,97815.45
2019-04-05T20:27:05.442Z,97819.14
2019-04-05T20:29:35.664Z,97818.01
2019-04-05T20:32:06.042Z,97821.75
2019-04-05T20:34:36.276Z,97820.97
2019-04-05T20:37:06.558Z,97823.83
2019-04-05T20:39:37.015Z,97823.95
2019-04-05T20:42:07.831Z,97826.34
2019-04-05T20:44:38.192Z,97830.83
2019-04-05T20:47:08.411Z,97828.40
2019-04-05T20:49:38.696Z,97826.59
2019-04-05T20:52:10.211Z,97820.47
2019-04-05T20:54:40.498Z,97825.23
2019-04-05T20:57:10.721Z,97822.59
2019-04-05T20:59:43.589Z,97825.17
2019-04-05T21:02:15.250Z,97823.83
2019-04-05T21:04:45.572Z,97829.22
2019-04-05T21:07:15.843Z,97828.33
2019-04-05T21:09:46.141Z,97833.45
2019-04-05T21:12:16.235Z,97831.31
2019-04-05T21:14:46.693Z,97834.56
2019-04-05T21:17:16.952Z,97830.56
2019-04-05T21:19:47.215Z,97841.22
2019-04-05T21:22:17.476Z,97842.46
2019-04-05T21:24:47.756Z,97843.47
2019-04-05T21:27:18.070Z,97841.70
2019-04-05T21:29:48.424Z,97850.48
2019-04-05T21:32:18.824Z,97847.69
2019-04-05T21:34:49.085Z,97853.02
2019-04-05T21:37:19.293Z,97852.69
2019-04-05T21:39:49.539Z,97857.58
2019-04-05T21:42:20.342Z,97857.48
2019-04-05T21:44:50.717Z,97860.13
2019-04-05T21:47:21.130Z,97859.91
2019-04-05T21:49:51.558Z,97865.25
2019-04-05T21:52:22.111Z,97867.72
2019-04-05T21:54:52.464Z,97866.27
2019-04-05T21:57:23.104Z,97874.59
2019-04-05T21:59:53.397Z,97876.69
2019-04-05T22:02:24.142Z,97878.00
2019-04-05T22:04:54.730Z,97883.91
2019-04-05T22:07:25.048Z,97887.02
2019-04-05T22:09:55.373Z,97883.48
2019-04-05T22:12:29.915Z,97890.37
2019-04-05T22:15:00.344Z,97887.13
2019-04-05T22:17:31.651Z,97891.36
2019-04-05T22:20:02.226Z,97894.09
2019-04-05T22:22:33.069Z,97894.77
2019-04-05T22:25:04.774Z,97895.41
2019-04-05T22:27:35.134Z,97898.58
2019-04-05T22:30:07.577Z,97897.41
2019-04-05T22:32:37.856Z,97903.02
2019-04-05T22:35:10.426Z,97903.70
2019-04-05T22:37:40.680Z,97908.15
2019-04-05T22:40:11.285Z,97912.22
2019-04-05T22:42:41.796Z,97912.15
2019-04-05T22:45:12.188Z,97911.13
2019-04-05T22:47:42.457Z,97909.89
2019-04-05T22:50:15.246Z,97908.96
2019-04-05T22:52:45.489Z,97907.67
2019-04-05T22:55:15.919Z,97901.84
2019-04-05T22:57:47.058Z,97903.05
2019-04-05T23:00:17.424Z,97905.70
2019-04-05T23:02:49.347Z,97907.89
2019-04-05T23:05:19.809Z,97909.20
2019-04-05T23:07:50.520Z,97906.39
2019-04-05T23:10:20.855Z,97909.59
2019-04-05T23:12:51.113Z,97914.05
2019-04-05T23:15:21.493Z,97915.33
2019-04-05T23:17:51.725Z,97913.58
2019-04-05T23:20:22.024Z,97915.77
2019-04-05T23:22:52.241Z,97925.18
2019-04-05T23:25:22.654Z,97921.54
2019-04-05T23:27:52.916Z,97912.69
2019-04-05T23:30:24.424Z,97911.69
2019-04-05T23:32:54.709Z,97917.23
2019-04-05T23:35:25.103Z,97914.47
2019-04-05T23:37:55.535Z,97914.92
2019-04-05T23:40:25.740Z,97910.05
2019-04-05T23:42:56.286Z,97910.78
2019-04-05T23:45:26.615Z,97913.64
2019-04-05T23:47:56.863Z,97917.33
2019-04-05T23:50:28.276Z,97913.55
2019-04-05T23:52:58.656Z,97918.09
2019-04-05T23:55:33.655Z,97918.36
2019-04-05T23:58:01.175Z,97913.98
